sensor_id;sensor_type;location;lat;lon;timestamp;P1;durP1;ratioP1;P2;durP2;ratioP2
2175;SDS011;1094;49.902;10.876;2022-08-19T00:02:04;43.00;;;32.47;;
2175;SDS011;1094;49.902;10.876;2022-08-19T00:04:33;39.83;;;31.77;;
2175;SDS011;1094;49.902;10.876;2022-08-19T00:07:01;42.43;;;32.40;;
2175;SDS011;1094;49.902;10.876;2022-08-19T00:09:28;41.20;;;32.80;;
2175;SDS011;1094;49.902;10.876;2022-08-19T00:11:54;47.80;;;34.10;;
2175;SDS011;1094;49.902;10.876;2022-08-19T00:14:21;42.20;;;32.77;;
2175;SDS011;1094;49.902;10.876;2022-08-19T00:16:47;46.20;;;32.77;;
2175;SDS011;1094;49.902;10.876;2022-08-19T00:19:14;38.47;;;31.40;;
2175;SDS011;1094;49.902;10.876;2022-08-19T00:21:41;43.00;;;31.50;;
2175;SDS011;1094;49.902;10.876;2022-08-19T00:24:08;40.80;;;31.23;;
2175;SDS011;1094;49.902;10.876;2022-08-19T00:26:35;41.60;;;32.03;;
2175;SDS011;1094;49.902;10.876;2022-08-19T00:29:02;40.80;;;31.50;;
2175;SDS011;1094;49.902;10.876;2022-08-19T00:31:28;41.47;;;32.57;;
2175;SDS011;1094;49.902;10.876;2022-08-19T00:33:55;48.30;;;32.27;;
2175;SDS011;1094;49.902;10.876;2022-08-19T00:36:21;37.30;;;30.00;;
2175;SDS011;1094;49.902;10.876;2022-08-19T00:38:47;43.87;;;31.73;;
2175;SDS011;1094;49.902;10.876;2022-08-19T00:41:14;40.90;;;31.73;;
2175;SDS011;1094;49.902;10.876;2022-08-19T00:43:41;42.53;;;31.93;;
2175;SDS011;1094;49.902;10.876;2022-08-19T00:46:07;42.67;;;33.63;;
2175;SDS011;1094;49.902;10.876;2022-08-19T00:48:33;43.60;;;32.10;;
2175;SDS011;1094;49.902;10.876;2022-08-19T00:50:59;44.63;;;33.17;;
2175;SDS011;1094;49.902;10.876;2022-08-19T00:53:26;40.50;;;31.90;;
2175;SDS011;1094;49.902;10.876;2022-08-19T00:55:53;42.40;;;31.90;;
2175;SDS011;1094;49.902;10.876;2022-08-19T00:58:21;43.87;;;33.40;;
2175;SDS011;1094;49.902;10.876;2022-08-19T01:00:48;42.50;;;31.93;;
2175;SDS011;1094;49.902;10.876;2022-08-19T01:03:15;40.53;;;31.30;;
2175;SDS011;1094;49.902;10.876;2022-08-19T01:05:42;41.13;;;31.93;;
2175;SDS011;1094;49.902;10.876;2022-08-19T01:08:08;44.97;;;31.87;;
2175;SDS011;1094;49.902;10.876;2022-08-19T01:10:52;44.93;;;32.20;;
2175;SDS011;1094;49.902;10.876;2022-08-19T01:13:20;44.20;;;32.70;;
2175;SDS011;1094;49.902;10.876;2022-08-19T01:15:48;48.53;;;35.87;;
2175;SDS011;1094;49.902;10.876;2022-08-19T01:18:16;46.40;;;34.27;;
2175;SDS011;1094;49.902;10.876;2022-08-19T01:20:43;50.63;;;33.90;;
2175;SDS011;1094;49.902;10.876;2022-08-19T01:23:09;56.43;;;34.57;;
2175;SDS011;1094;49.902;10.876;2022-08-19T01:25:38;48.60;;;34.77;;
2175;SDS011;1094;49.902;10.876;2022-08-19T01:28:05;50.37;;;35.80;;
2175;SDS011;1094;49.902;10.876;2022-08-19T01:30:32;46.47;;;33.53;;
2175;SDS011;1094;49.902;10.876;2022-08-19T01:32:59;42.17;;;32.50;;
2175;SDS011;1094;49.902;10.876;2022-08-19T01:35:25;44.63;;;32.97;;
2175;SDS011;1094;49.902;10.876;2022-08-19T01:37:53;44.77;;;33.20;;
2175;SDS011;1094;49.902;10.876;2022-08-19T01:40:20;47.33;;;33.50;;
2175;SDS011;1094;49.902;10.876;2022-08-19T01:42:47;49.33;;;34.30;;
2175;SDS011;1094;49.902;10.876;2022-08-19T01:45:14;46.93;;;32.40;;
2175;SDS011;1094;49.902;10.876;2022-08-19T01:47:40;45.40;;;34.07;;
2175;SDS011;1094;49.902;10.876;2022-08-19T01:50:06;41.60;;;31.37;;
2175;SDS011;1094;49.902;10.876;2022-08-19T01:52:34;42.90;;;33.27;;
2175;SDS011;1094;49.902;10.876;2022-08-19T01:55:00;46.70;;;33.60;;
2175;SDS011;1094;49.902;10.876;2022-08-19T01:57:26;43.70;;;33.60;;
2175;SDS011;1094;49.902;10.876;2022-08-19T01:59:52;41.90;;;31.87;;
2175;SDS011;1094;49.902;10.876;2022-08-19T02:02:18;46.93;;;32.33;;
2175;SDS011;1094;49.902;10.876;2022-08-19T02:04:44;44.50;;;32.57;;
2175;SDS011;1094;49.902;10.876;2022-08-19T02:07:10;46.17;;;33.37;;
2175;SDS011;1094;49.902;10.876;2022-08-19T02:09:36;48.13;;;32.77;;
2175;SDS011;1094;49.902;10.876;2022-08-19T02:12:03;44.67;;;33.07;;
2175;SDS011;1094;49.902;10.876;2022-08-19T02:14:29;48.17;;;33.37;;
2175;SDS011;1094;49.902;10.876;2022-08-19T02:16:55;44.27;;;31.57;;
2175;SDS011;1094;49.902;10.876;2022-08-19T02:19:21;44.20;;;32.40;;
2175;SDS011;1094;49.902;10.876;2022-08-19T02:21:47;45.67;;;32.00;;
2175;SDS011;1094;49.902;10.876;2022-08-19T02:24:13;44.43;;;31.77;;
2175;SDS011;1094;49.902;10.876;2022-08-19T02:26:39;47.20;;;32.87;;
2175;SDS011;1094;49.902;10.876;2022-08-19T02:29:05;43.07;;;33.10;;
2175;SDS011;1094;49.902;10.876;2022-08-19T02:31:31;44.83;;;33.00;;
2175;SDS011;1094;49.902;10.876;2022-08-19T02:33:58;46.50;;;31.80;;
2175;SDS011;1094;49.902;10.876;2022-08-19T02:36:24;46.33;;;32.03;;
2175;SDS011;1094;49.902;10.876;2022-08-19T02:38:50;47.87;;;30.83;;
2175;SDS011;1094;49.902;10.876;2022-08-19T02:41:17;43.77;;;31.27;;
2175;SDS011;1094;49.902;10.876;2022-08-19T02:43:43;49.67;;;34.20;;
2175;SDS011;1094;49.902;10.876;2022-08-19T02:48:38;43.60;;;31.60;;
2175;SDS011;1094;49.902;10.876;2022-08-19T02:51:04;42.20;;;30.57;;
2175;SDS011;1094;49.902;10.876;2022-08-19T02:53:30;42.13;;;31.23;;
2175;SDS011;1094;49.902;10.876;2022-08-19T02:55:56;42.70;;;32.60;;
2175;SDS011;1094;49.902;10.876;2022-08-19T02:58:22;38.93;;;28.57;;
2175;SDS011;1094;49.902;10.876;2022-08-19T03:00:50;39.20;;;30.20;;
2175;SDS011;1094;49.902;10.876;2022-08-19T03:03:17;41.27;;;32.50;;
2175;SDS011;1094;49.902;10.876;2022-08-19T03:05:43;45.13;;;30.90;;
2175;SDS011;1094;49.902;10.876;2022-08-19T03:08:10;41.93;;;29.40;;
2175;SDS011;1094;49.902;10.876;2022-08-19T03:10:46;38.10;;;27.93;;
2175;SDS011;1094;49.902;10.876;2022-08-19T03:13:14;39.53;;;29.10;;
2175;SDS011;1094;49.902;10.876;2022-08-19T03:15:44;34.90;;;27.90;;
2175;SDS011;1094;49.902;10.876;2022-08-19T03:18:11;38.43;;;30.13;;
2175;SDS011;1094;49.902;10.876;2022-08-19T03:20:44;38.07;;;29.60;;
2175;SDS011;1094;49.902;10.876;2022-08-19T03:23:10;38.87;;;29.40;;
2175;SDS011;1094;49.902;10.876;2022-08-19T03:25:40;37.90;;;29.30;;
2175;SDS011;1094;49.902;10.876;2022-08-19T03:28:08;39.73;;;30.03;;
2175;SDS011;1094;49.902;10.876;2022-08-19T03:30:34;42.77;;;30.53;;
2175;SDS011;1094;49.902;10.876;2022-08-19T03:33:00;41.63;;;29.67;;
2175;SDS011;1094;49.902;10.876;2022-08-19T03:35:26;41.43;;;30.87;;
2175;SDS011;1094;49.902;10.876;2022-08-19T03:37:52;40.60;;;29.63;;
2175;SDS011;1094;49.902;10.876;2022-08-19T03:40:18;46.90;;;31.10;;
2175;SDS011;1094;49.902;10.876;2022-08-19T03:42:44;45.10;;;32.37;;
2175;SDS011;1094;49.902;10.876;2022-08-19T03:45:11;44.77;;;32.77;;
2175;SDS011;1094;49.902;10.876;2022-08-19T03:47:37;43.07;;;31.07;;
2175;SDS011;1094;49.902;10.876;2022-08-19T03:50:03;43.37;;;31.60;;
2175;SDS011;1094;49.902;10.876;2022-08-19T03:52:29;41.40;;;30.07;;
2175;SDS011;1094;49.902;10.876;2022-08-19T03:54:55;39.40;;;30.80;;
2175;SDS011;1094;49.902;10.876;2022-08-19T03:57:21;44.47;;;31.37;;
2175;SDS011;1094;49.902;10.876;2022-08-19T03:59:47;45.73;;;30.80;;
2175;SDS011;1094;49.902;10.876;2022-08-19T04:02:13;43.10;;;31.43;;
2175;SDS011;1094;49.902;10.876;2022-08-19T04:04:40;42.20;;;31.00;;
2175;SDS011;1094;49.902;10.876;2022-08-19T04:07:06;51.80;;;33.37;;
2175;SDS011;1094;49.902;10.876;2022-08-19T04:09:33;45.93;;;32.73;;
2175;SDS011;1094;49.902;10.876;2022-08-19T04:12:01;44.10;;;31.67;;
2175;SDS011;1094;49.902;10.876;2022-08-19T04:14:30;41.70;;;32.60;;
2175;SDS011;1094;49.902;10.876;2022-08-19T04:16:56;43.80;;;30.57;;
2175;SDS011;1094;49.902;10.876;2022-08-19T04:19:22;42.57;;;30.43;;
2175;SDS011;1094;49.902;10.876;2022-08-19T04:21:49;42.43;;;30.70;;
2175;SDS011;1094;49.902;10.876;2022-08-19T04:24:17;40.87;;;30.60;;
2175;SDS011;1094;49.902;10.876;2022-08-19T04:26:43;40.00;;;29.97;;
2175;SDS011;1094;49.902;10.876;2022-08-19T04:29:11;43.90;;;29.33;;
2175;SDS011;1094;49.902;10.876;2022-08-19T04:31:37;44.07;;;30.80;;
2175;SDS011;1094;49.902;10.876;2022-08-19T04:34:04;40.27;;;29.60;;
2175;SDS011;1094;49.902;10.876;2022-08-19T04:36:31;49.17;;;30.80;;
2175;SDS011;1094;49.902;10.876;2022-08-19T04:38:59;41.20;;;29.57;;
2175;SDS011;1094;49.902;10.876;2022-08-19T04:41:25;39.87;;;30.07;;
2175;SDS011;1094;49.902;10.876;2022-08-19T04:44:12;40.63;;;29.43;;
2175;SDS011;1094;49.902;10.876;2022-08-19T04:46:38;42.23;;;30.10;;
2175;SDS011;1094;49.902;10.876;2022-08-19T04:49:05;41.97;;;29.77;;
2175;SDS011;1094;49.902;10.876;2022-08-19T04:51:31;46.90;;;31.33;;
2175;SDS011;1094;49.902;10.876;2022-08-19T04:53:57;43.10;;;31.70;;
2175;SDS011;1094;49.902;10.876;2022-08-19T04:56:25;45.47;;;30.40;;
2175;SDS011;1094;49.902;10.876;2022-08-19T04:58:51;40.20;;;30.37;;
2175;SDS011;1094;49.902;10.876;2022-08-19T05:01:18;39.80;;;28.80;;
2175;SDS011;1094;49.902;10.876;2022-08-19T05:03:44;38.30;;;27.20;;
2175;SDS011;1094;49.902;10.876;2022-08-19T05:06:11;35.50;;;27.70;;
2175;SDS011;1094;49.902;10.876;2022-08-19T05:08:38;41.80;;;29.10;;
2175;SDS011;1094;49.902;10.876;2022-08-19T05:11:08;40.50;;;27.83;;
2175;SDS011;1094;49.902;10.876;2022-08-19T05:13:34;39.70;;;27.93;;
2175;SDS011;1094;49.902;10.876;2022-08-19T05:16:00;39.40;;;28.67;;
2175;SDS011;1094;49.902;10.876;2022-08-19T05:18:26;36.20;;;27.90;;
2175;SDS011;1094;49.902;10.876;2022-08-19T05:21:12;43.37;;;30.27;;
2175;SDS011;1094;49.902;10.876;2022-08-19T05:23:57;42.63;;;29.03;;
2175;SDS011;1094;49.902;10.876;2022-08-19T05:26:24;45.20;;;29.07;;
2175;SDS011;1094;49.902;10.876;2022-08-19T05:28:53;38.30;;;27.37;;
2175;SDS011;1094;49.902;10.876;2022-08-19T05:31:19;36.97;;;28.00;;
2175;SDS011;1094;49.902;10.876;2022-08-19T05:33:45;36.13;;;27.30;;
2175;SDS011;1094;49.902;10.876;2022-08-19T05:36:11;37.30;;;27.63;;
2175;SDS011;1094;49.902;10.876;2022-08-19T05:38:38;34.40;;;27.03;;
2175;SDS011;1094;49.902;10.876;2022-08-19T05:41:11;37.13;;;27.17;;
2175;SDS011;1094;49.902;10.876;2022-08-19T05:43:38;38.07;;;27.90;;
2175;SDS011;1094;49.902;10.876;2022-08-19T05:46:04;33.27;;;26.67;;
2175;SDS011;1094;49.902;10.876;2022-08-19T05:48:31;37.47;;;27.43;;
2175;SDS011;1094;49.902;10.876;2022-08-19T05:50:57;40.57;;;28.77;;
2175;SDS011;1094;49.902;10.876;2022-08-19T05:53:24;34.20;;;27.87;;
2175;SDS011;1094;49.902;10.876;2022-08-19T05:55:50;35.10;;;27.37;;
2175;SDS011;1094;49.902;10.876;2022-08-19T05:58:16;34.70;;;27.00;;
2175;SDS011;1094;49.902;10.876;2022-08-19T06:00:42;40.57;;;28.90;;
2175;SDS011;1094;49.902;10.876;2022-08-19T06:03:09;39.50;;;28.60;;
2175;SDS011;1094;49.902;10.876;2022-08-19T06:05:35;39.20;;;27.70;;
2175;SDS011;1094;49.902;10.876;2022-08-19T06:08:01;34.90;;;26.97;;
2175;SDS011;1094;49.902;10.876;2022-08-19T06:10:27;37.70;;;28.30;;
2175;SDS011;1094;49.902;10.876;2022-08-19T06:12:54;35.87;;;28.23;;
2175;SDS011;1094;49.902;10.876;2022-08-19T06:15:21;39.70;;;28.83;;
2175;SDS011;1094;49.902;10.876;2022-08-19T06:17:53;34.50;;;27.73;;
2175;SDS011;1094;49.902;10.876;2022-08-19T06:20:19;38.67;;;27.77;;
2175;SDS011;1094;49.902;10.876;2022-08-19T06:22:46;38.47;;;27.13;;
2175;SDS011;1094;49.902;10.876;2022-08-19T06:25:14;34.40;;;25.50;;
2175;SDS011;1094;49.902;10.876;2022-08-19T06:27:40;37.20;;;26.70;;
2175;SDS011;1094;49.902;10.876;2022-08-19T06:30:06;34.60;;;26.90;;
2175;SDS011;1094;49.902;10.876;2022-08-19T06:32:32;36.17;;;26.80;;
2175;SDS011;1094;49.902;10.876;2022-08-19T06:34:58;36.53;;;26.40;;
2175;SDS011;1094;49.902;10.876;2022-08-19T06:37:24;42.17;;;28.40;;
2175;SDS011;1094;49.902;10.876;2022-08-19T06:39:50;34.30;;;26.17;;
2175;SDS011;1094;49.902;10.876;2022-08-19T06:42:16;36.07;;;27.60;;
2175;SDS011;1094;49.902;10.876;2022-08-19T06:44:43;37.10;;;26.30;;
2175;SDS011;1094;49.902;10.876;2022-08-19T06:47:11;36.23;;;25.83;;
2175;SDS011;1094;49.902;10.876;2022-08-19T06:49:37;35.53;;;25.30;;
2175;SDS011;1094;49.902;10.876;2022-08-19T06:52:03;32.00;;;24.77;;
2175;SDS011;1094;49.902;10.876;2022-08-19T06:54:30;31.00;;;24.30;;
2175;SDS011;1094;49.902;10.876;2022-08-19T06:56:57;29.87;;;24.33;;
2175;SDS011;1094;49.902;10.876;2022-08-19T06:59:23;30.27;;;25.60;;
2175;SDS011;1094;49.902;10.876;2022-08-19T07:01:52;30.13;;;23.43;;
2175;SDS011;1094;49.902;10.876;2022-08-19T07:04:20;28.10;;;23.10;;
2175;SDS011;1094;49.902;10.876;2022-08-19T07:06:46;32.23;;;24.80;;
2175;SDS011;1094;49.902;10.876;2022-08-19T07:09:13;30.33;;;23.03;;
2175;SDS011;1094;49.902;10.876;2022-08-19T07:11:46;30.83;;;24.03;;
2175;SDS011;1094;49.902;10.876;2022-08-19T07:14:13;28.90;;;22.93;;
2175;SDS011;1094;49.902;10.876;2022-08-19T07:16:39;29.23;;;22.77;;
2175;SDS011;1094;49.902;10.876;2022-08-19T07:19:05;30.30;;;23.90;;
2175;SDS011;1094;49.902;10.876;2022-08-19T07:21:32;27.00;;;23.10;;
2175;SDS011;1094;49.902;10.876;2022-08-19T07:23:58;28.23;;;22.07;;
2175;SDS011;1094;49.902;10.876;2022-08-19T07:26:26;28.90;;;22.50;;
2175;SDS011;1094;49.902;10.876;2022-08-19T07:28:53;25.03;;;21.47;;
2175;SDS011;1094;49.902;10.876;2022-08-19T07:31:20;31.00;;;21.97;;
2175;SDS011;1094;49.902;10.876;2022-08-19T07:33:47;26.00;;;21.40;;
2175;SDS011;1094;49.902;10.876;2022-08-19T07:36:14;26.47;;;20.97;;
2175;SDS011;1094;49.902;10.876;2022-08-19T07:38:42;27.47;;;20.87;;
2175;SDS011;1094;49.902;10.876;2022-08-19T07:41:09;24.83;;;20.47;;
2175;SDS011;1094;49.902;10.876;2022-08-19T07:43:36;23.07;;;20.60;;
2175;SDS011;1094;49.902;10.876;2022-08-19T07:46:02;23.97;;;19.73;;
2175;SDS011;1094;49.902;10.876;2022-08-19T07:48:28;21.60;;;19.03;;
2175;SDS011;1094;49.902;10.876;2022-08-19T07:50:55;25.63;;;19.90;;
2175;SDS011;1094;49.902;10.876;2022-08-19T07:53:22;22.83;;;20.50;;
2175;SDS011;1094;49.902;10.876;2022-08-19T07:55:48;22.57;;;18.90;;
2175;SDS011;1094;49.902;10.876;2022-08-19T07:58:15;22.17;;;19.00;;
2175;SDS011;1094;49.902;10.876;2022-08-19T08:00:42;22.70;;;18.83;;
2175;SDS011;1094;49.902;10.876;2022-08-19T08:03:08;21.83;;;17.40;;
2175;SDS011;1094;49.902;10.876;2022-08-19T08:05:34;21.73;;;17.77;;
2175;SDS011;1094;49.902;10.876;2022-08-19T08:08:19;21.10;;;18.87;;
2175;SDS011;1094;49.902;10.876;2022-08-19T08:10:48;21.33;;;17.17;;
2175;SDS011;1094;49.902;10.876;2022-08-19T08:13:14;20.77;;;17.90;;
2175;SDS011;1094;49.902;10.876;2022-08-19T08:15:40;20.70;;;17.33;;
2175;SDS011;1094;49.902;10.876;2022-08-19T08:18:06;19.73;;;17.60;;
2175;SDS011;1094;49.902;10.876;2022-08-19T08:20:32;21.50;;;17.17;;
2175;SDS011;1094;49.902;10.876;2022-08-19T08:22:58;23.93;;;18.37;;
2175;SDS011;1094;49.902;10.876;2022-08-19T08:25:42;22.97;;;18.80;;
2175;SDS011;1094;49.902;10.876;2022-08-19T08:28:08;20.63;;;18.33;;
2175;SDS011;1094;49.902;10.876;2022-08-19T08:30:35;22.43;;;17.67;;
2175;SDS011;1094;49.902;10.876;2022-08-19T08:33:01;17.97;;;15.73;;
2175;SDS011;1094;49.902;10.876;2022-08-19T08:35:27;18.07;;;16.17;;
2175;SDS011;1094;49.902;10.876;2022-08-19T08:37:54;18.83;;;16.83;;
2175;SDS011;1094;49.902;10.876;2022-08-19T08:40:22;18.40;;;15.83;;
2175;SDS011;1094;49.902;10.876;2022-08-19T08:45:28;18.57;;;15.40;;
2175;SDS011;1094;49.902;10.876;2022-08-19T08:47:54;20.60;;;17.07;;
2175;SDS011;1094;49.902;10.876;2022-08-19T08:50:23;18.27;;;14.97;;
2175;SDS011;1094;49.902;10.876;2022-08-19T08:52:50;16.60;;;14.40;;
2175;SDS011;1094;49.902;10.876;2022-08-19T08:55:19;14.57;;;13.10;;
2175;SDS011;1094;49.902;10.876;2022-08-19T09:00:24;16.90;;;14.40;;
2175;SDS011;1094;49.902;10.876;2022-08-19T09:02:51;17.20;;;15.43;;
2175;SDS011;1094;49.902;10.876;2022-08-19T09:05:17;16.03;;;14.33;;
2175;SDS011;1094;49.902;10.876;2022-08-19T09:07:50;15.47;;;13.97;;
2175;SDS011;1094;49.902;10.876;2022-08-19T09:10:24;15.20;;;13.70;;
2175;SDS011;1094;49.902;10.876;2022-08-19T09:13:10;14.67;;;13.27;;
2175;SDS011;1094;49.902;10.876;2022-08-19T09:15:42;15.27;;;13.73;;
2175;SDS011;1094;49.902;10.876;2022-08-19T09:18:09;14.73;;;12.23;;
2175;SDS011;1094;49.902;10.876;2022-08-19T09:20:35;16.07;;;14.40;;
2175;SDS011;1094;49.902;10.876;2022-08-19T09:23:01;15.50;;;13.93;;
2175;SDS011;1094;49.902;10.876;2022-08-19T09:25:28;15.20;;;13.50;;
2175;SDS011;1094;49.902;10.876;2022-08-19T09:27:55;15.33;;;13.83;;
2175;SDS011;1094;49.902;10.876;2022-08-19T09:30:24;15.20;;;13.70;;
2175;SDS011;1094;49.902;10.876;2022-08-19T09:32:50;16.63;;;14.83;;
2175;SDS011;1094;49.902;10.876;2022-08-19T09:35:27;14.00;;;12.53;;
2175;SDS011;1094;49.902;10.876;2022-08-19T09:37:54;15.03;;;13.57;;
2175;SDS011;1094;49.902;10.876;2022-08-19T09:40:21;17.30;;;15.43;;
2175;SDS011;1094;49.902;10.876;2022-08-19T09:42:47;15.40;;;14.00;;
2175;SDS011;1094;49.902;10.876;2022-08-19T09:45:14;16.83;;;15.13;;
2175;SDS011;1094;49.902;10.876;2022-08-19T09:47:40;22.83;;;16.60;;
2175;SDS011;1094;49.902;10.876;2022-08-19T09:50:08;16.90;;;15.10;;
2175;SDS011;1094;49.902;10.876;2022-08-19T09:52:34;16.57;;;14.87;;
2175;SDS011;1094;49.902;10.876;2022-08-19T09:55:04;17.90;;;15.77;;
2175;SDS011;1094;49.902;10.876;2022-08-19T09:57:30;17.17;;;15.57;;
2175;SDS011;1094;49.902;10.876;2022-08-19T09:59:56;17.67;;;15.87;;
2175;SDS011;1094;49.902;10.876;2022-08-19T10:02:23;17.47;;;15.77;;
2175;SDS011;1094;49.902;10.876;2022-08-19T10:04:49;17.40;;;15.70;;
2175;SDS011;1094;49.902;10.876;2022-08-19T10:07:34;17.33;;;15.40;;
2175;SDS011;1094;49.902;10.876;2022-08-19T10:10:02;17.20;;;15.53;;
2175;SDS011;1094;49.902;10.876;2022-08-19T10:12:28;17.67;;;15.97;;
2175;SDS011;1094;49.902;10.876;2022-08-19T10:14:54;18.40;;;16.60;;
2175;SDS011;1094;49.902;10.876;2022-08-19T10:17:20;17.67;;;15.80;;
2175;SDS011;1094;49.902;10.876;2022-08-19T10:19:46;17.73;;;15.93;;
2175;SDS011;1094;49.902;10.876;2022-08-19T10:22:12;17.13;;;15.53;;
2175;SDS011;1094;49.902;10.876;2022-08-19T10:24:39;17.57;;;15.77;;
2175;SDS011;1094;49.902;10.876;2022-08-19T10:27:06;21.13;;;15.27;;
2175;SDS011;1094;49.902;10.876;2022-08-19T10:29:32;18.27;;;16.37;;
2175;SDS011;1094;49.902;10.876;2022-08-19T10:31:59;19.40;;;17.40;;
2175;SDS011;1094;49.902;10.876;2022-08-19T10:34:26;23.40;;;18.50;;
2175;SDS011;1094;49.902;10.876;2022-08-19T10:36:52;20.20;;;18.20;;
2175;SDS011;1094;49.902;10.876;2022-08-19T10:39:18;20.67;;;18.43;;
2175;SDS011;1094;49.902;10.876;2022-08-19T10:41:44;20.83;;;18.63;;
2175;SDS011;1094;49.902;10.876;2022-08-19T10:44:11;18.67;;;16.73;;
2175;SDS011;1094;49.902;10.876;2022-08-19T10:46:40;19.67;;;17.70;;
2175;SDS011;1094;49.902;10.876;2022-08-19T10:49:07;24.30;;;17.43;;
2175;SDS011;1094;49.902;10.876;2022-08-19T10:51:34;19.27;;;16.87;;
2175;SDS011;1094;49.902;10.876;2022-08-19T10:54:18;21.50;;;16.83;;
2175;SDS011;1094;49.902;10.876;2022-08-19T10:56:44;18.87;;;17.07;;
2175;SDS011;1094;49.902;10.876;2022-08-19T10:59:27;17.63;;;15.77;;
2175;SDS011;1094;49.902;10.876;2022-08-19T11:02:00;17.90;;;16.10;;
2175;SDS011;1094;49.902;10.876;2022-08-19T11:04:26;18.17;;;15.87;;
2175;SDS011;1094;49.902;10.876;2022-08-19T11:06:52;20.37;;;18.33;;
2175;SDS011;1094;49.902;10.876;2022-08-19T11:09:20;20.10;;;18.03;;
2175;SDS011;1094;49.902;10.876;2022-08-19T11:11:46;19.73;;;17.80;;
2175;SDS011;1094;49.902;10.876;2022-08-19T11:14:13;20.23;;;17.80;;
2175;SDS011;1094;49.902;10.876;2022-08-19T11:16:40;21.20;;;19.00;;
2175;SDS011;1094;49.902;10.876;2022-08-19T11:19:07;21.77;;;19.50;;
2175;SDS011;1094;49.902;10.876;2022-08-19T11:21:34;20.50;;;18.23;;
2175;SDS011;1094;49.902;10.876;2022-08-19T11:24:05;20.13;;;18.00;;
2175;SDS011;1094;49.902;10.876;2022-08-19T11:26:32;21.50;;;19.20;;
2175;SDS011;1094;49.902;10.876;2022-08-19T11:28:58;21.53;;;19.23;;
2175;SDS011;1094;49.902;10.876;2022-08-19T11:31:26;20.47;;;18.47;;
2175;SDS011;1094;49.902;10.876;2022-08-19T11:33:52;20.20;;;17.83;;
2175;SDS011;1094;49.902;10.876;2022-08-19T11:36:19;17.83;;;16.13;;
2175;SDS011;1094;49.902;10.876;2022-08-19T11:38:46;21.13;;;16.70;;
2175;SDS011;1094;49.902;10.876;2022-08-19T11:41:13;19.27;;;17.43;;
2175;SDS011;1094;49.902;10.876;2022-08-19T11:43:40;18.37;;;16.47;;
2175;SDS011;1094;49.902;10.876;2022-08-19T11:46:06;16.90;;;15.30;;
2175;SDS011;1094;49.902;10.876;2022-08-19T11:48:33;20.77;;;18.77;;
2175;SDS011;1094;49.902;10.876;2022-08-19T11:50:59;19.93;;;16.77;;
2175;SDS011;1094;49.902;10.876;2022-08-19T11:53:25;17.83;;;16.03;;
2175;SDS011;1094;49.902;10.876;2022-08-19T11:55:52;17.03;;;15.17;;
2175;SDS011;1094;49.902;10.876;2022-08-19T11:58:21;17.43;;;15.70;;
2175;SDS011;1094;49.902;10.876;2022-08-19T12:00:47;19.27;;;14.40;;
2175;SDS011;1094;49.902;10.876;2022-08-19T12:03:14;19.90;;;17.80;;
2175;SDS011;1094;49.902;10.876;2022-08-19T12:05:40;20.90;;;16.80;;
2175;SDS011;1094;49.902;10.876;2022-08-19T12:08:06;19.00;;;16.27;;
2175;SDS011;1094;49.902;10.876;2022-08-19T12:10:33;20.50;;;16.37;;
2175;SDS011;1094;49.902;10.876;2022-08-19T12:12:59;18.77;;;15.60;;
2175;SDS011;1094;49.902;10.876;2022-08-19T12:15:26;17.40;;;15.60;;
2175;SDS011;1094;49.902;10.876;2022-08-19T12:17:53;20.17;;;16.13;;
2175;SDS011;1094;49.902;10.876;2022-08-19T12:20:21;18.63;;;16.73;;
2175;SDS011;1094;49.902;10.876;2022-08-19T12:22:47;19.07;;;17.07;;
2175;SDS011;1094;49.902;10.876;2022-08-19T12:25:13;19.60;;;16.47;;
2175;SDS011;1094;49.902;10.876;2022-08-19T12:27:39;16.60;;;15.00;;
2175;SDS011;1094;49.902;10.876;2022-08-19T12:30:06;16.10;;;14.50;;
2175;SDS011;1094;49.902;10.876;2022-08-19T12:32:32;16.27;;;14.50;;
2175;SDS011;1094;49.902;10.876;2022-08-19T12:34:58;15.07;;;13.57;;
2175;SDS011;1094;49.902;10.876;2022-08-19T12:37:24;17.90;;;14.20;;
2175;SDS011;1094;49.902;10.876;2022-08-19T12:39:50;16.30;;;14.67;;
2175;SDS011;1094;49.902;10.876;2022-08-19T12:42:16;19.80;;;13.97;;
2175;SDS011;1094;49.902;10.876;2022-08-19T12:44:42;16.83;;;14.03;;
2175;SDS011;1094;49.902;10.876;2022-08-19T12:47:09;14.83;;;13.43;;
2175;SDS011;1094;49.902;10.876;2022-08-19T12:49:36;19.43;;;17.10;;
2175;SDS011;1094;49.902;10.876;2022-08-19T12:52:03;17.23;;;15.00;;
2175;SDS011;1094;49.902;10.876;2022-08-19T12:54:30;20.87;;;18.63;;
2175;SDS011;1094;49.902;10.876;2022-08-19T12:56:56;21.33;;;19.13;;
2175;SDS011;1094;49.902;10.876;2022-08-19T12:59:22;20.80;;;17.53;;
2175;SDS011;1094;49.902;10.876;2022-08-19T13:01:49;21.93;;;16.40;;
2175;SDS011;1094;49.902;10.876;2022-08-19T13:04:15;18.20;;;16.30;;
2175;SDS011;1094;49.902;10.876;2022-08-19T13:06:41;18.27;;;16.00;;
2175;SDS011;1094;49.902;10.876;2022-08-19T13:09:07;19.00;;;16.47;;
2175;SDS011;1094;49.902;10.876;2022-08-19T13:11:33;19.40;;;15.40;;
2175;SDS011;1094;49.902;10.876;2022-08-19T13:14:00;17.60;;;15.73;;
2175;SDS011;1094;49.902;10.876;2022-08-19T13:16:26;17.77;;;15.30;;
2175;SDS011;1094;49.902;10.876;2022-08-19T13:18:53;18.73;;;15.80;;
2175;SDS011;1094;49.902;10.876;2022-08-19T13:21:19;17.87;;;16.03;;
2175;SDS011;1094;49.902;10.876;2022-08-19T13:23:47;17.97;;;15.70;;
2175;SDS011;1094;49.902;10.876;2022-08-19T13:26:14;18.23;;;16.27;;
2175;SDS011;1094;49.902;10.876;2022-08-19T13:28:40;18.10;;;15.53;;
2175;SDS011;1094;49.902;10.876;2022-08-19T13:31:26;20.00;;;16.50;;
2175;SDS011;1094;49.902;10.876;2022-08-19T13:34:11;18.73;;;16.60;;
2175;SDS011;1094;49.902;10.876;2022-08-19T13:36:37;18.30;;;15.87;;
2175;SDS011;1094;49.902;10.876;2022-08-19T13:39:04;20.30;;;15.30;;
2175;SDS011;1094;49.902;10.876;2022-08-19T13:41:30;17.40;;;15.60;;
2175;SDS011;1094;49.902;10.876;2022-08-19T13:43:56;17.87;;;16.00;;
2175;SDS011;1094;49.902;10.876;2022-08-19T13:46:22;20.57;;;17.40;;
2175;SDS011;1094;49.902;10.876;2022-08-19T13:48:48;19.80;;;17.07;;
2175;SDS011;1094;49.902;10.876;2022-08-19T13:51:15;18.40;;;16.40;;
2175;SDS011;1094;49.902;10.876;2022-08-19T13:53:41;19.37;;;15.70;;
2175;SDS011;1094;49.902;10.876;2022-08-19T13:56:08;16.60;;;14.83;;
2175;SDS011;1094;49.902;10.876;2022-08-19T13:58:35;17.87;;;15.50;;
2175;SDS011;1094;49.902;10.876;2022-08-19T14:01:01;14.63;;;12.17;;
2175;SDS011;1094;49.902;10.876;2022-08-19T14:03:27;15.80;;;13.37;;
2175;SDS011;1094;49.902;10.876;2022-08-19T14:05:53;14.50;;;13.00;;
2175;SDS011;1094;49.902;10.876;2022-08-19T14:08:19;14.40;;;13.00;;
2175;SDS011;1094;49.902;10.876;2022-08-19T14:10:45;15.70;;;14.10;;
2175;SDS011;1094;49.902;10.876;2022-08-19T14:13:17;12.90;;;11.60;;
2175;SDS011;1094;49.902;10.876;2022-08-19T14:15:43;16.70;;;14.57;;
2175;SDS011;1094;49.902;10.876;2022-08-19T14:18:09;17.57;;;15.37;;
2175;SDS011;1094;49.902;10.876;2022-08-19T14:20:35;17.43;;;13.90;;
2175;SDS011;1094;49.902;10.876;2022-08-19T14:23:01;16.40;;;14.63;;
2175;SDS011;1094;49.902;10.876;2022-08-19T14:25:28;15.63;;;13.93;;
2175;SDS011;1094;49.902;10.876;2022-08-19T14:27:55;16.67;;;11.60;;
2175;SDS011;1094;49.902;10.876;2022-08-19T14:30:25;12.20;;;10.87;;
2175;SDS011;1094;49.902;10.876;2022-08-19T14:32:52;10.93;;;9.87;;
2175;SDS011;1094;49.902;10.876;2022-08-19T14:35:19;10.70;;;9.60;;
2175;SDS011;1094;49.902;10.876;2022-08-19T14:37:47;12.07;;;10.40;;
2175;SDS011;1094;49.902;10.876;2022-08-19T14:40:13;11.77;;;10.23;;
2175;SDS011;1094;49.902;10.876;2022-08-19T14:42:40;8.83;;;8.00;;
2175;SDS011;1094;49.902;10.876;2022-08-19T14:45:06;10.17;;;9.20;;